Latest Weather Observations for Mount Keith

IDW60801

Issued at 7:05 am WST Friday 29 August 2014 (issued every 30 minutes, with the page automatically refreshed every 10 minutes)

About weather observations | Map of weather stations | Latest weather observations for WA | Other Formats
Station Details ID: 512019 Name: MOUNT KEITH Lat: -27.29 Lon: 120.55 Height: 542.33 m
Data from the previous 72 hours. | See also: Recent months for locations in Western Australia
Date/Time
WST
Temp
°C
App
Temp
°C
Dew
Point
Rel
Hum
%
Delta-T
°C
Wind Press
QNH
hPa
Press
MSL
hPa
Rain
since 9 am
mm
Dir
 
Spd
km/h
Gust
km/h
Spd
kts
Gust
kts
29/07:00am 14.7 11.5 -7.4 21 8.2 N 2 6 1 3 1019.3 1018.4 0.0
29/06:30am 14.0 9.0 -7.9 21 7.9 N 11 15 6 8 1019.1 1018.2 0.0
29/06:00am 14.4 9.8 -7.6 21 8.1 NW 9 11 5 6 1019.2 1018.3 0.0
29/05:30am 15.6 8.9 -8.6 18 8.8 WNW 20 24 11 13 1018.4 1017.6 0.0
29/05:00am 19.0 11.9 -8.2 15 10.4 N 22 32 12 17 1018.0 1017.2 0.0
29/04:30am 19.3 12.2 -8.8 14 10.6 N 22 30 12 16 1017.8 1016.9 0.0
29/04:00am 19.4 11.9 -8.7 14 10.7 N 24 33 13 18 1017.8 1016.9 0.0
29/03:30am 20.1 13.3 -9.1 13 11.1 N 20 30 11 16 1017.7 1016.8 0.0
29/03:00am 21.3 14.1 -9.2 12 11.7 N 22 30 12 16 1017.7 1016.8 0.0
29/02:30am 21.1 14.6 -8.4 13 11.5 NNW 19 30 10 16 1017.9 1017.0 0.0
29/02:00am 20.2 14.0 -9.1 13 11.1 NNW 17 24 9 13 1018.1 1017.3 0.0
29/01:30am 19.8 13.6 -8.4 14 10.8 NNW 17 20 9 11 1018.4 1017.6 0.0
29/01:00am 19.2 13.4 -8.9 14 10.6 N 15 17 8 9 1018.7 1017.9 0.0
29/12:30am 19.0 13.2 -9.1 14 10.5 NNW 15 20 8 11 1018.8 1018.0 0.0
29/12:00am 19.4 14.0 -8.7 14 10.6 NNW 13 17 7 9 1018.8 1018.0 0.0
 
Date/Time
WST
Temp
°C
App
Temp
°C
Dew
Point
Rel
Hum
%
Delta-T
°C
Wind Press
QNH
hPa
Press
MSL
hPa
Rain
since 9 am
mm
Dir
 
Spd
km/h
Gust
km/h
Spd
kts
Gust
kts
28/11:30pm 18.3 12.8 -9.6 14 10.3 NW 13 15 7 8 1019.1 1018.2 0.0
28/11:00pm 19.8 15.2 -7.5 15 10.6 NNW 9 11 5 6 1019.1 1018.2 0.0
28/10:30pm 17.1 12.9 -7.4 18 9.3 NNW 7 9 4 5 1019.1 1018.2 0.0
28/10:00pm 17.6 13.2 -6.3 19 9.3 NNW 9 11 5 6 1019.3 1018.4 0.0
28/09:30pm 16.8 12.6 -7.6 18 9.2 NNW 7 9 4 5 1019.3 1018.4 0.0
28/09:00pm 19.8 15.2 -7.5 15 10.6 NNW 9 11 5 6 1019.3 1018.4 0.0
28/08:30pm 21.6 16.6 -8.0 13 11.7 NNW 11 13 6 7 1019.4 1018.5 0.0
28/08:00pm 21.6 16.5 -9.0 12 11.8 N 11 13 6 7 1019.2 1018.3 0.0
28/07:30pm 21.9 16.8 -8.8 12 12.0 NW 11 13 6 7 1019.0 1018.1 0.0
28/07:00pm 23.0 17.9 -9.0 11 12.5 NNW 11 13 6 7 1018.7 1017.9 0.0
28/06:30pm 24.4 19.3 -9.1 10 13.3 N 11 13 6 7 1018.3 1017.5 0.0
28/06:00pm 25.3 20.2 -9.8 9 13.9 N 11 15 6 8 1017.9 1017.0 0.0
28/05:30pm 26.9 21.5 -8.6 9 14.6 N 13 17 7 9 1017.7 1016.8 0.0
28/05:00pm 27.5 20.9 -9.7 8 15.0 N 19 24 10 13 1017.6 1016.7 0.0
28/04:30pm 28.5 21.7 -8.9 8 15.5 N 20 30 11 16 1017.6 1016.7 0.0
28/04:00pm 28.6 21.5 -8.8 8 15.5 NNW 22 32 12 17 1017.4 1016.5 0.0
28/03:30pm 28.9 22.7 -8.6 8 15.7 N 17 30 9 16 1017.5 1016.6 0.0
28/03:00pm 29.4 22.2 -9.9 7 16.1 N 22 30 12 16 1017.7 1016.8 0.0
28/02:30pm 28.7 22.1 -8.8 8 15.6 N 19 33 10 18 1017.8 1016.9 0.0
28/02:00pm 29.0 21.9 -8.5 8 15.7 N 22 30 12 16 1018.0 1017.2 0.0
28/01:30pm 28.4 21.7 -7.5 9 15.2 NNE 20 28 11 15 1018.1 1017.3 0.0
28/01:00pm 28.8 22.2 -8.7 8 15.6 N 19 26 10 14 1018.6 1017.8 0.0
28/12:30pm 28.5 20.7 -7.4 9 15.3 N 26 37 14 20 1018.8 1018.0 0.0
28/12:00pm 28.5 22.4 -7.4 9 15.2 NNE 17 28 9 15 1019.4 1018.5 0.0
28/11:30am 27.9 21.3 -6.5 10 14.8 N 20 26 11 14 1019.7 1018.9 0.0
28/11:00am 27.4 20.4 -6.9 10 14.6 N 22 33 12 18 1020.1 1019.3 0.0
28/10:30am 27.6 19.9 -6.7 10 14.7 N 26 35 14 19 1020.7 1019.9 0.0
28/10:00am 26.6 19.9 -7.5 10 14.2 N 20 28 11 15 1021.1 1020.2 0.0
28/09:30am 25.7 19.8 -5.8 12 13.5 N 17 24 9 13 1021.3 1020.5 0.0
28/09:00am 23.8 17.8 -6.2 13 12.5 N 17 22 9 12 1021.3 1020.5 0.0
28/08:30am 22.3 17.2 -5.6 15 11.6 N 13 20 7 11 1021.2 1020.4 0.0
28/08:00am 20.9 17.0 -4.3 18 10.6 NE 7 9 4 5 1021.0 1020.1 0.0
28/07:54am 20.5 16.7 -3.9 19 10.3 NE 7 9 4 5 1021.0 1020.1 0.0
28/07:30am 15.5 13.1 -3.4 27 7.7 CALM 0 0 0 0 1020.8 1020.0 0.0
28/07:00am 12.4 9.9 -3.8 32 6.3 CALM 0 0 0 0 1020.5 1019.7 0.0
28/06:30am 9.6 7.0 -5.1 35 5.4 CALM 0 6 0 3 1020.2 1019.4 0.0
28/06:00am 9.6 6.6 -4.7 36 5.3 WNW 2 6 1 3 1020.0 1019.2 0.0
28/05:30am 10.1 7.5 -5.0 34 5.6 CALM 0 0 0 0 1020.0 1019.2 0.0
28/05:00am 10.9 7.1 -6.0 30 6.2 N 6 9 3 5 1019.7 1018.9 0.0
28/04:30am 11.8 9.2 -4.8 31 6.3 CALM 0 0 0 0 1019.6 1018.8 0.0
28/04:00am 13.4 10.8 -5.2 27 7.1 CALM 0 6 0 3 1019.2 1018.3 0.0
28/03:30am 13.6 10.9 -6.0 25 7.4 CALM 0 0 0 0 1019.3 1018.4 0.0
28/03:00am 16.1 11.7 -5.6 22 8.5 N 9 13 5 7 1019.2 1018.3 0.0
28/02:30am 16.6 11.1 -5.2 22 8.6 NNE 15 19 8 10 1019.3 1018.4 0.0
28/02:00am 16.5 11.8 -5.3 22 8.6 N 11 15 6 8 1019.7 1018.9 0.0
28/01:30am 16.2 10.3 -5.5 22 8.5 NNE 17 20 9 11 1019.8 1019.0 0.0
28/01:00am 13.5 10.3 -3.7 30 6.8 ENE 4 9 2 5 1020.2 1019.4 0.0
28/12:30am 13.2 10.6 -4.9 28 7.0 CALM 0 0 0 0 1020.4 1019.6 0.0
28/12:00am 13.8 11.2 -5.3 26 7.3 CALM 0 0 0 0 1020.6 1019.8 0.0
 
Date/Time
WST
Temp
°C
App
Temp
°C
Dew
Point
Rel
Hum
%
Delta-T
°C
Wind Press
QNH
hPa
Press
MSL
hPa
Rain
since 9 am
mm
Dir
 
Spd
km/h
Gust
km/h
Spd
kts
Gust
kts
27/11:30pm 13.8 11.2 -5.3 26 7.3 CALM 0 0 0 0 1020.8 1020.0 0.0
27/11:00pm 13.4 9.7 -4.7 28 7.0 ENE 6 7 3 4 1021.0 1020.1 0.0
27/10:30pm 14.6 12.0 -5.2 25 7.7 CALM 0 0 0 0 1021.0 1020.1 0.0
27/10:00pm 15.0 12.0 -5.4 24 7.9 NNE 2 6 1 3 1020.8 1020.0 0.0
27/09:30pm 15.4 12.8 -5.0 24 8.0 CALM 0 0 0 0 1020.8 1020.0 0.0
27/09:00pm 15.8 12.5 -4.2 25 8.0 NE 4 6 2 3 1020.8 1020.0 0.0
27/08:30pm 16.3 12.4 -4.3 24 8.3 NNE 7 9 4 5 1020.8 1020.0 0.0
27/08:00pm 18.5 15.9 -4.9 20 9.5 CALM 0 6 0 3 1021.0 1020.1 0.0
27/07:30pm 18.9 16.0 -4.5 20 9.6 ENE 2 6 1 3 1020.6 1019.8 0.0
27/07:00pm 19.6 15.6 -5.3 18 10.1 NNE 7 9 4 5 1020.2 1019.4 0.0
27/06:30pm 21.0 17.2 -5.7 16 10.9 N 6 7 3 4 1019.8 1019.0 0.0
27/06:00pm 23.7 19.5 -7.4 12 12.6 NNW 7 7 4 4 1019.7 1018.9 0.0
27/05:30pm 26.6 22.4 -7.5 10 14.2 N 7 11 4 6 1019.5 1018.6 0.0
27/05:00pm 27.8 22.4 -7.9 9 14.9 N 13 17 7 9 1019.1 1018.2 0.0
27/04:30pm 28.2 23.3 -7.6 9 15.1 N 11 20 6 11 1019.1 1018.2 0.0
27/04:00pm 28.3 22.2 -7.6 9 15.2 N 17 22 9 12 1019.0 1018.1 0.0
27/03:30pm 28.9 24.4 -7.1 9 15.5 NNW 9 17 5 9 1019.1 1018.2 0.0
27/03:00pm 29.0 23.3 -7.0 9 15.5 N 15 30 8 16 1019.1 1018.2 0.0
27/02:30pm 28.3 22.6 -7.6 9 15.2 NNE 15 26 8 14 1019.4 1018.5 0.0
27/02:00pm 28.7 22.6 -7.3 9 15.3 N 17 28 9 15 1019.6 1018.8 0.0
27/01:30pm 28.3 23.1 -6.2 10 15.0 E 13 17 7 9 1019.8 1019.0 0.0
27/01:00pm 27.9 22.3 -6.5 10 14.8 ENE 15 24 8 13 1020.2 1019.4 0.0
27/12:30pm 28.8 23.3 -5.8 10 15.2 N 15 26 8 14 1020.4 1019.6 0.0
27/12:00pm 27.3 20.9 -6.9 10 14.5 NE 19 30 10 16 1021.0 1020.1 0.0
27/11:30am 27.4 20.9 -5.6 11 14.4 N 20 35 11 19 1021.4 1020.6 0.0
27/11:00am 26.6 20.3 -6.2 11 14.0 NNE 19 24 10 13 1021.9 1021.1 0.0
27/10:30am 26.4 20.2 -5.3 12 13.8 N 19 26 10 14 1022.3 1021.5 0.0
27/10:00am 25.7 19.5 -4.7 13 13.2 N 19 24 10 13 1022.5 1021.7 0.0
27/09:30am 24.8 19.4 -4.5 14 12.7 N 15 20 8 11 1022.7 1021.9 0.0
27/09:00am 22.7 18.1 -4.4 16 11.5 N 11 13 6 7 1022.7 1021.9 0.0
27/08:30am 19.8 16.0 -3.8 20 9.9 NNW 7 9 4 5 1022.5 1021.7 0.0
27/08:00am 17.3 13.5 -4.0 23 8.7 NNE 7 9 4 5 1022.3 1021.5 0.0
27/07:30am 14.5 11.6 -4.2 27 7.4 ENE 2 6 1 3 1022.2 1021.4 0.0
27/07:00am 10.5 8.1 -3.2 38 5.3 CALM 0 0 0 0 1021.9 1021.1 0.0
27/06:30am 8.6 5.7 -3.9 41 4.7 SSE 2 6 1 3 1021.4 1020.6 0.0
27/06:00am 8.5 5.2 -4.0 41 4.6 SSE 4 6 2 3 1021.1 1020.2 0.0
27/05:30am 8.7 4.8 -4.8 38 4.9 SSE 7 13 4 7 1020.7 1019.9 0.0
27/05:00am 10.1 6.4 -4.6 35 5.5 NW 6 7 3 4 1020.4 1019.6 0.0
27/04:30am 10.4 6.7 -4.8 34 5.7 NNW 6 7 3 4 1020.4 1019.6 0.0
27/04:00am 10.7 7.0 -4.9 33 5.8 WNW 6 9 3 5 1020.4 1019.6 0.0
27/03:30am 11.0 8.4 -4.6 33 5.9 CALM 0 4 0 2 1020.3 1019.5 0.0
27/03:00am 11.7 8.0 -4.8 31 6.2 S 6 7 3 4 1020.3 1019.5 0.0
27/02:30am 11.5 7.5 -5.4 30 6.3 S 7 11 4 6 1020.6 1019.8 0.0
27/02:00am 13.7 10.0 -4.9 27 7.2 SW 6 7 3 4 1020.7 1019.9 0.0
27/01:30am 13.7 10.3 -5.4 26 7.3 WSW 4 7 2 4 1020.7 1019.9 0.0
27/01:00am 13.5 9.6 -4.2 29 6.9 NNW 7 9 4 5 1020.8 1020.0 0.0
27/12:30am 13.6 10.3 -4.5 28 7.1 ENE 4 7 2 4 1020.8 1020.0 0.0
27/12:00am 13.4 9.7 -4.2 29 6.9 ESE 6 7 3 4 1021.1 1020.2 0.0
 
Date/Time
WST
Temp
°C
App
Temp
°C
Dew
Point
Rel
Hum
%
Delta-T
°C
Wind Press
QNH
hPa
Press
MSL
hPa
Rain
since 9 am
mm
Dir
 
Spd
km/h
Gust
km/h
Spd
kts
Gust
kts
26/11:30pm 13.7 9.8 -4.9 27 7.2 ESE 7 9 4 5 1021.1 1020.2 0.0
26/11:00pm 13.9 10.3 -3.4 30 6.9 NNE 6 9 3 5 1021.2 1020.4 0.0
26/10:30pm 14.3 11.7 -4.9 26 7.5 CALM 0 0 0 0 1021.0 1020.1 0.0
26/10:00pm 15.0 11.2 -3.8 27 7.5 N 7 9 4 5 1021.2 1020.4 0.0
26/09:30pm 15.6 12.4 -3.8 26 7.8 N 4 9 2 5 1021.4 1020.6 0.0
26/09:00pm 16.7 14.2 -3.9 24 8.4 CALM 0 6 0 3 1021.5 1020.7 0.0
26/08:30pm 17.3 14.4 -4.0 23 8.7 NNE 2 7 1 4 1021.5 1020.7 0.0
26/08:00pm 17.5 13.7 -3.8 23 8.7 ENE 7 9 4 5 1021.4 1020.6 0.0
26/07:30pm 18.1 14.3 -5.2 20 9.4 ENE 6 6 3 3 1021.2 1020.4 0.0
26/07:00pm 19.5 15.5 -5.4 18 10.1 ENE 7 11 4 6 1021.0 1020.1 0.0
26/06:30pm 21.3 17.4 -6.3 15 11.2 ENE 6 7 3 4 1020.7 1019.9 0.0
26/06:00pm 23.7 19.6 -6.3 13 12.4 NE 7 9 4 5 1020.5 1019.7 0.0
26/05:30pm 26.2 22.0 -7.8 10 14.1 ENE 7 9 4 5 1020.3 1019.5 0.0
26/05:00pm 28.5 25.4 -6.0 10 15.0 ESE 2 7 1 4 1020.2 1019.4 0.0
26/04:30pm 27.8 23.6 -7.9 9 15.0 SW 7 11 4 6 1020.2 1019.4 0.0
26/04:00pm 28.6 24.1 -7.3 9 15.3 NNW 9 15 5 8 1020.2 1019.4 0.0
26/03:30pm 28.7 24.2 -7.3 9 15.4 WNW 9 13 5 7 1020.2 1019.4 0.0
26/03:00pm 28.7 24.7 -7.3 9 15.3 NNE 6 15 3 8 1020.3 1019.5 0.0
26/02:30pm 28.7 23.8 -7.3 9 15.4 ENE 11 17 6 9 1020.6 1019.8 0.0
26/02:00pm 28.2 23.4 -6.3 10 14.9 SE 11 19 6 10 1020.8 1020.0 0.0
26/01:30pm 28.0 23.2 -6.4 10 14.8 ENE 11 17 6 9 1021.2 1020.4 0.0
26/01:00pm 28.1 24.0 -6.3 10 14.8 NNW 7 11 4 6 1021.6 1020.8 0.0
26/12:30pm 28.5 24.1 -6.0 10 15.1 N 9 30 5 16 1022.0 1021.2 0.0
26/12:00pm 27.9 22.3 -6.5 10 14.7 N 15 26 8 14 1022.6 1021.8 0.0
26/11:30am 27.9 22.0 -5.2 11 14.6 N 17 32 9 17 1023.1 1022.3 0.0
26/11:00am 27.4 20.9 -5.6 11 14.3 N 20 28 11 15 1023.3 1022.5 0.0
26/10:30am 27.1 20.7 -4.7 12 14.0 N 20 28 11 15 1023.7 1022.9 0.0
26/10:00am 26.0 19.8 -4.5 13 13.3 N 19 24 10 13 1024.0 1023.2 0.0
26/09:30am 25.0 19.2 -4.3 14 12.8 N 17 24 9 13 1024.1 1023.3 0.0
26/09:00am 24.4 18.7 -3.9 15 12.3 N 17 22 9 12 1024.2 1023.4 0.0
26/08:30am 22.1 18.0 -3.3 18 11.0 NNE 9 13 5 7 1024.3 1023.5 0.0
26/08:00am 19.2 16.9 -2.4 23 9.3 CALM 0 7 0 4 1024.3 1023.5 0.0
26/07:30am 16.3 12.9 -2.2 28 7.8 NE 6 7 3 4 1024.2 1023.4 0.0

Other Formats:

Comma delimited format used in spreadsheet applications
http://www.bom.gov.au/fwo/IDW60801/IDW60801.99434.axf

JavaScript Object Notation format (JSON) in row-major order
http://www.bom.gov.au/fwo/IDW60801/IDW60801.99434.json